Time;durP1;ratioP1;P1;durP2;ratioP2;P2;SDS_P1;SDS_P2;PMS_P1;PMS_P2;Temp;Humidity;BMP_temperature;BMP_pressure;BME280_temperature;BME280_humidity;BME280_pressure;Samples;Min_cycle;Max_cycle;Signal;HPM_P1;HPM_P2
2021/05/18 00:02:41;;;;;;;0.70;0.70;;;21.20;53.30;;;;;;10371553;28;20186;-11
2021/05/18 00:08:06;;;;;;;0.93;0.73;;;21.20;53.40;;;;;;10330655;28;20274;-8
2021/05/18 00:13:28;;;;;;;1.17;0.90;;;21.20;53.50;;;;;;10353130;28;20214;-11
2021/05/18 00:18:49;;;;;;;1.10;0.90;;;21.20;53.40;;;;;;10397881;28;20221;-9
2021/05/18 00:24:13;;;;;;;0.60;0.60;;;21.20;53.40;;;;;;10386386;28;20256;-8
2021/05/18 00:29:34;;;;;;;1.97;1.00;;;21.20;53.00;;;;;;10370701;28;20209;-8
2021/05/18 00:34:56;;;;;;;1.00;0.80;;;21.20;53.10;;;;;;10370798;28;20221;-10
2021/05/18 00:40:19;;;;;;;1.13;0.87;;;21.20;53.10;;;;;;10370396;28;20675;-10
2021/05/18 00:45:45;;;;;;;2.33;0.80;;;21.20;53.20;;;;;;10370947;28;20217;-8
2021/05/18 00:51:09;;;;;;;2.10;1.03;;;21.10;53.30;;;;;;10371516;28;20186;-9
2021/05/18 01:02:10;;;;;;;1.20;1.10;;;21.20;53.10;;;;;;10395380;28;20198;-9
2021/05/18 01:07:32;;;;;;;1.20;0.90;;;21.20;52.90;;;;;;10400217;28;20225;-8
2021/05/18 01:12:54;;;;;;;1.87;1.13;;;21.20;53.20;;;;;;10378100;28;20210;-10
2021/05/18 01:18:16;;;;;;;1.70;1.30;;;21.20;53.20;;;;;;10377575;28;20229;-9
2021/05/18 01:23:40;;;;;;;2.87;1.40;;;21.10;53.20;;;;;;10377162;28;20187;-8
2021/05/18 01:29:02;;;;;;;1.87;1.20;;;21.20;53.30;;;;;;10377544;28;20218;-8
2021/05/18 01:34:23;;;;;;;2.73;1.40;;;21.20;53.10;;;;;;10376118;28;20229;-9
2021/05/18 01:39:55;;;;;;;2.17;1.40;;;21.20;52.80;;;;;;10335802;28;20198;-10
2021/05/18 01:45:19;;;;;;;2.67;1.70;;;21.20;52.90;;;;;;10364390;28;20210;-9
2021/05/18 01:50:43;;;;;;;2.27;1.73;;;21.10;52.80;;;;;;10375716;28;20206;-9
2021/05/18 01:56:17;;;;;;;2.20;1.67;;;21.20;52.80;;;;;;10335580;28;20235;-8
2021/05/18 02:01:40;;;;;;;3.97;1.80;;;21.20;52.60;;;;;;10380380;28;20205;-9
2021/05/18 02:07:05;;;;;;;2.63;1.60;;;21.20;53.00;;;;;;10374485;28;20215;-9
2021/05/18 02:12:28;;;;;;;2.57;1.77;;;21.10;52.90;;;;;;10392040;28;20221;-11
2021/05/18 02:18:20;;;;;;;2.77;1.53;;;21.10;52.90;;;;;;10415056;28;20213;-10
2021/05/18 02:29:22;;;;;;;2.10;1.77;;;21.10;52.80;;;;;;10387713;28;20186;-8
2021/05/18 02:34:43;;;;;;;2.53;1.50;;;21.20;53.20;;;;;;10373381;28;20218;-8
2021/05/18 02:40:07;;;;;;;3.93;1.87;;;21.20;52.60;;;;;;10374796;28;20202;-9
2021/05/18 02:45:32;;;;;;;3.00;1.60;;;21.20;52.70;;;;;;10333247;28;20595;-8
2021/05/18 02:50:54;;;;;;;3.20;1.87;;;21.20;52.70;;;;;;10334063;28;20199;-9
2021/05/18 02:56:23;;;;;;;3.97;1.93;;;21.20;52.90;;;;;;10373705;28;20221;-11
2021/05/18 03:01:48;;;;;;;2.33;1.90;;;21.20;52.50;;;;;;10404897;28;20200;-9
2021/05/18 03:07:09;;;;;;;1.43;1.33;;;21.10;52.60;;;;;;10401575;28;20214;-8
2021/05/18 03:12:31;;;;;;;3.57;1.87;;;21.10;52.80;;;;;;10376993;28;20235;-10
2021/05/18 03:17:54;;;;;;;2.70;1.77;;;21.10;52.80;;;;;;10371495;28;20757;-11
2021/05/18 03:23:15;;;;;;;2.47;1.70;;;21.00;52.80;;;;;;10371899;28;20249;-12
2021/05/18 03:28:37;;;;;;;2.27;1.73;;;21.00;53.00;;;;;;10372438;28;20225;-8
2021/05/18 03:39:40;;;;;;;2.97;1.83;;;21.10;52.90;;;;;;10371805;28;20209;-8
2021/05/18 03:45:09;;;;;;;3.30;1.73;;;21.20;52.50;;;;;;10370873;28;20210;-7
2021/05/18 04:13:19;;;;;;;2.23;1.70;;;21.10;52.90;;;;;;10376965;28;20246;-9
2021/05/18 04:18:48;;;;;;;2.70;1.60;;;21.00;52.70;;;;;;10369869;28;20234;-12
2021/05/18 04:24:34;;;;;;;3.10;1.73;;;21.10;52.60;;;;;;10377508;28;20187;-7
2021/05/18 04:41:29;;;;;;;2.07;1.60;;;21.00;52.90;;;;;;10374915;28;20274;-10
2021/05/18 04:52:33;;;;;;;3.73;1.93;;;21.10;52.70;;;;;;10394126;28;20192;-8
2021/05/18 05:03:51;;;;;;;5.83;4.00;;;21.10;52.60;;;;;;10347083;28;20245;-8
2021/05/18 05:09:21;;;;;;;7.80;5.23;;;21.20;51.30;;;;;;10378531;28;20235;-10
2021/05/18 05:14:44;;;;;;;10.50;5.50;;;21.20;50.50;;;;;;10388902;28;20252;-11
2021/05/18 05:20:06;;;;;;;6.27;4.57;;;21.20;50.30;;;;;;10387078;28;20190;-10
2021/05/18 05:25:28;;;;;;;6.20;4.23;;;21.10;50.30;;;;;;10376422;28;20215;-11
2021/05/18 05:30:50;;;;;;;7.40;5.17;;;21.10;50.90;;;;;;10408940;23;20238;-12
2021/05/18 05:36:12;;;;;;;9.47;4.77;;;21.00;50.50;;;;;;10438878;28;20224;-11
2021/05/18 05:41:34;;;;;;;7.90;5.00;;;21.00;50.40;;;;;;10426681;28;20220;-12
2021/05/18 05:46:56;;;;;;;6.93;4.30;;;20.90;50.90;;;;;;10451336;28;20566;-12
2021/05/18 05:52:19;;;;;;;7.80;4.47;;;20.80;50.90;;;;;;10394730;28;20228;-13
2021/05/18 05:57:41;;;;;;;7.00;4.03;;;20.80;51.00;;;;;;10416018;28;20194;-12
2021/05/18 06:03:03;;;;;;;9.83;4.63;;;20.90;51.00;;;;;;10410054;28;20217;-12
2021/05/18 06:08:25;;;;;;;8.23;4.33;;;20.80;50.80;;;;;;10375604;28;20672;-12
2021/05/18 06:42:27;;;;;;;7.87;4.33;;;20.60;50.80;;;;;;10425231;28;20214;-11
2021/05/18 06:47:49;;;;;;;10.50;4.10;;;20.60;51.40;;;;;;10413864;28;20285;-10
2021/05/18 06:53:12;;;;;;;11.33;4.17;;;20.60;51.40;;;;;;10431219;28;20225;-12
2021/05/18 07:00:06;;;;;;;9.73;3.03;;;20.70;51.30;;;;;;10453681;28;20624;-12
2021/05/18 07:04:28;;;;;;;11.23;4.60;;;20.80;51.90;;;;;;10437545;28;20562;-12
2021/05/18 07:09:51;;;;;;;6.80;3.63;;;20.70;51.30;;;;;;10413690;28;20217;-11
2021/05/18 07:15:14;;;;;;;10.13;4.50;;;20.90;51.00;;;;;;10434904;28;20227;-13
2021/05/18 07:20:36;;;;;;;10.63;4.17;;;20.80;50.60;;;;;;10411213;28;20224;-12
2021/05/18 07:25:58;;;;;;;6.80;3.47;;;20.80;51.10;;;;;;10412007;28;20202;-13
2021/05/18 07:31:20;;;;;;;9.53;4.37;;;20.70;51.40;;;;;;10411384;28;20225;-10
2021/05/18 07:36:42;;;;;;;9.13;4.13;;;20.70;51.80;;;;;;10380761;28;20614;-11
2021/05/18 07:42:05;;;;;;;7.33;3.67;;;20.80;51.70;;;;;;10385722;28;20271;-11
2021/05/18 07:47:30;;;;;;;7.50;3.53;;;20.90;51.60;;;;;;10400533;28;20199;-11
2021/05/18 08:09:53;;;;;;;15.20;3.97;;;21.00;51.10;;;;;;10410561;28;20214;-12
2021/05/18 08:15:40;;;;;;;12.10;3.60;;;21.10;50.60;;;;;;10412457;28;20300;-13
2021/05/18 10:38:00;;;;;;;3.07;1.80;;;21.30;46.40;;;;;;10413049;28;20198;-12
2021/05/18 10:43:30;;;;;;;3.60;2.17;;;21.20;46.50;;;;;;10413895;28;20210;-13
2021/05/18 10:48:58;;;;;;;3.07;1.90;;;21.20;46.90;;;;;;10413924;28;20192;-12
2021/05/18 10:54:31;;;;;;;5.57;1.60;;;21.20;46.60;;;;;;10411487;28;20213;-11
2021/05/18 10:59:55;;;;;;;4.03;2.27;;;21.10;46.60;;;;;;10406864;28;20229;-11
2021/05/18 11:05:18;;;;;;;2.07;1.60;;;21.20;46.40;;;;;;10372264;28;20652;-11
2021/05/18 11:10:40;;;;;;;3.27;1.50;;;21.30;47.50;;;;;;10373128;28;20229;-11
2021/05/18 11:16:02;;;;;;;4.13;1.83;;;21.40;47.40;;;;;;10411519;28;20256;-12
2021/05/18 11:21:26;;;;;;;3.33;1.80;;;21.40;47.30;;;;;;10407714;28;20229;-10
2021/05/18 11:26:48;;;;;;;4.40;2.13;;;21.40;46.80;;;;;;10377261;28;20257;-12
2021/05/18 11:32:10;;;;;;;3.30;1.80;;;21.40;46.80;;;;;;10364968;28;20904;-10
2021/05/18 11:37:33;;;;;;;3.90;1.87;;;21.40;47.60;;;;;;10364133;28;20719;-11
2021/05/18 11:42:55;;;;;;;3.33;1.77;;;21.40;47.60;;;;;;10366187;28;20222;-12
2021/05/18 11:48:18;;;;;;;3.17;1.70;;;21.40;47.20;;;;;;10367488;28;20203;-12
2021/05/18 11:53:44;;;;;;;2.23;1.50;;;21.30;47.30;;;;;;10392013;28;20241;-10
2021/05/18 11:59:08;;;;;;;6.23;1.90;;;21.30;48.30;;;;;;10420996;28;20224;-12
2021/05/18 12:04:31;;;;;;;2.23;1.30;;;21.40;47.80;;;;;;10446359;28;20872;-11
2021/05/18 12:09:53;;;;;;;1.33;1.23;;;21.40;47.60;;;;;;10446949;28;20237;-12
2021/05/18 12:15:15;;;;;;;3.00;1.70;;;21.30;47.60;;;;;;10428218;28;20273;-11
2021/05/18 12:20:40;;;;;;;3.03;1.70;;;21.30;48.20;;;;;;10365438;28;20309;-11
2021/05/18 12:26:18;;;;;;;5.33;1.70;;;21.30;48.00;;;;;;10396938;28;20622;-11
2021/05/18 12:31:40;;;;;;;3.53;1.93;;;21.30;48.80;;;;;;10376848;28;20229;-10
2021/05/18 12:37:01;;;;;;;3.97;1.60;;;21.30;48.20;;;;;;10377504;28;20239;-12
2021/05/18 12:42:29;;;;;;;2.87;1.33;;;21.30;48.40;;;;;;10368889;28;20713;-13
2021/05/18 12:47:53;;;;;;;7.23;1.90;;;21.30;49.40;;;;;;10368819;28;20664;-13
2021/05/18 12:53:25;;;;;;;6.13;1.57;;;21.40;48.90;;;;;;10428932;28;20274;-14
2021/05/18 12:58:47;;;;;;;3.00;1.57;;;21.40;48.90;;;;;;10414188;28;20202;-11
2021/05/18 13:04:11;;;;;;;2.37;1.80;;;21.40;48.80;;;;;;10376516;28;20198;-13
2021/05/18 13:09:33;;;;;;;8.50;1.77;;;21.30;49.00;;;;;;10377114;28;20241;-13
2021/05/18 13:14:57;;;;;;;4.93;1.90;;;21.40;48.30;;;;;;10377019;28;20225;-13
2021/05/18 13:20:19;;;;;;;2.73;1.43;;;21.50;47.90;;;;;;10405032;28;20208;-13
2021/05/18 13:31:21;;;;;;;2.43;1.47;;;21.40;48.10;;;;;;10388310;28;20293;-12
2021/05/18 13:36:43;;;;;;;6.20;1.60;;;21.40;47.30;;;;;;10375020;28;20218;-12
2021/05/18 13:42:05;;;;;;;5.50;1.50;;;21.40;48.20;;;;;;10375042;28;20222;-12
2021/05/18 13:47:28;;;;;;;7.53;1.50;;;21.30;49.90;;;;;;10374786;28;20206;-14
2021/05/18 13:52:49;;;;;;;7.63;1.80;;;21.30;48.00;;;;;;10404187;28;20638;-12
2021/05/18 13:58:11;;;;;;;9.03;1.63;;;21.30;48.50;;;;;;10405056;28;20205;-12
2021/05/18 14:03:34;;;;;;;10.97;1.93;;;21.30;48.50;;;;;;10405770;28;20713;-13
2021/05/18 14:08:56;;;;;;;6.53;1.67;;;21.30;46.90;;;;;;10456083;23;20231;-13
2021/05/18 14:14:17;;;;;;;6.83;1.60;;;21.30;46.80;;;;;;10489493;28;20208;-11
2021/05/18 14:19:40;;;;;;;2.40;1.70;;;21.40;47.20;;;;;;10495408;28;20227;-10
2021/05/18 14:25:05;;;;;;;4.40;1.60;;;21.40;46.70;;;;;;10494035;28;20730;-13
2021/05/18 14:30:27;;;;;;;4.87;1.57;;;21.30;46.50;;;;;;10488180;28;20772;-13
2021/05/18 14:35:49;;;;;;;3.43;1.60;;;21.30;46.90;;;;;;10495389;28;20220;-12
2021/05/18 14:47:03;;;;;;;7.03;2.07;;;21.20;46.40;;;;;;10495181;28;20180;-9
2021/05/18 14:58:05;;;;;;;3.37;1.50;;;21.20;46.20;;;;;;10491983;28;20680;-9
2021/05/18 15:03:30;;;;;;;2.73;1.60;;;21.20;46.90;;;;;;10453602;28;20193;-10
2021/05/18 15:08:53;;;;;;;5.83;1.70;;;21.20;47.60;;;;;;10472053;28;20310;-11
2021/05/18 15:14:14;;;;;;;5.43;1.60;;;21.10;48.00;;;;;;10493947;28;20212;-11
2021/05/18 15:19:36;;;;;;;4.20;1.50;;;21.10;48.00;;;;;;10494647;28;20216;-10
2021/05/18 15:24:59;;;;;;;2.50;1.40;;;21.20;48.80;;;;;;10493811;28;20199;-12
2021/05/18 15:30:21;;;;;;;5.40;2.00;;;21.10;48.50;;;;;;10475864;28;20701;-11
2021/05/18 15:35:42;;;;;;;5.60;1.97;;;21.10;48.20;;;;;;10455142;28;20220;-14
2021/05/18 15:41:06;;;;;;;10.67;2.07;;;21.10;47.80;;;;;;10489151;28;20878;-10
2021/05/18 15:46:28;;;;;;;5.33;2.00;;;21.10;48.50;;;;;;10491574;28;20203;-9
2021/05/18 15:51:50;;;;;;;3.60;2.00;;;21.10;48.20;;;;;;10490099;28;20217;-11
2021/05/18 15:57:12;;;;;;;4.47;2.20;;;21.10;47.50;;;;;;10491774;28;20220;-11
2021/05/18 16:02:34;;;;;;;3.97;1.60;;;21.00;47.70;;;;;;10467748;28;20208;-12
2021/05/18 16:08:05;;;;;;;3.63;1.50;;;21.00;46.90;;;;;;10492224;28;20227;-9
2021/05/18 16:13:28;;;;;;;3.93;1.50;;;21.10;46.80;;;;;;10492040;28;20275;-11
2021/05/18 16:18:49;;;;;;;3.87;1.53;;;21.10;46.70;;;;;;10491295;28;20214;-9
2021/05/18 16:24:11;;;;;;;1.83;1.40;;;21.10;47.70;;;;;;10490564;28;20564;-13
2021/05/18 16:29:33;;;;;;;3.40;1.60;;;21.10;48.60;;;;;;10481167;28;20224;-9
2021/05/18 16:34:55;;;;;;;6.40;2.10;;;21.10;49.10;;;;;;10453178;28;20267;-10
2021/05/18 16:40:17;;;;;;;11.67;2.37;;;21.10;49.60;;;;;;10478651;28;20212;-10
2021/05/18 16:45:39;;;;;;;12.03;2.20;;;21.30;49.10;;;;;;10491310;28;20271;-12
2021/05/18 16:51:03;;;;;;;4.13;1.93;;;21.30;49.20;;;;;;10490254;28;20258;-12
2021/05/18 16:56:25;;;;;;;11.13;2.83;;;21.30;49.40;;;;;;10490116;28;20220;-12
2021/05/18 17:01:48;;;;;;;13.37;2.70;;;21.30;49.70;;;;;;10490002;28;20216;-8
2021/05/18 17:07:10;;;;;;;12.00;2.53;;;21.20;50.00;;;;;;10487876;28;20220;-13
2021/05/18 17:12:31;;;;;;;9.57;2.43;;;21.10;50.10;;;;;;10447711;28;20601;-11
2021/05/18 17:17:54;;;;;;;11.27;2.53;;;21.10;51.10;;;;;;10478814;28;20220;-10
2021/05/18 17:38:47;;;;;;;11.47;2.30;;;21.10;50.30;;;;;;10546876;27;20612;-11
2021/05/18 18:07:07;;;;;;;9.57;2.77;;;21.00;51.00;;;;;;10565998;27;20571;-6
2021/05/18 18:12:29;;;;;;;8.27;2.87;;;21.10;51.30;;;;;;10507824;28;20222;-7
2021/05/18 18:17:51;;;;;;;12.63;2.70;;;21.00;52.00;;;;;;10528909;28;20722;-7
2021/05/18 18:23:13;;;;;;;16.57;3.03;;;21.10;51.90;;;;;;10528715;27;20668;-6
2021/05/18 18:28:35;;;;;;;10.17;2.70;;;21.10;51.80;;;;;;10500190;28;20208;-8
2021/05/18 18:33:57;;;;;;;8.57;2.37;;;21.10;51.90;;;;;;10486238;28;20228;-7
2021/05/18 18:39:20;;;;;;;10.67;2.43;;;21.20;51.90;;;;;;10508665;28;20192;-9
2021/05/18 18:44:42;;;;;;;9.07;2.13;;;21.20;51.90;;;;;;10514147;28;20623;-8
2021/05/18 18:50:07;;;;;;;9.07;2.20;;;21.20;52.00;;;;;;10490938;28;20211;-7
2021/05/18 18:55:29;;;;;;;20.93;2.77;;;21.20;51.90;;;;;;10525884;28;20270;-8
2021/05/18 19:00:51;;;;;;;13.30;2.67;;;21.30;51.90;;;;;;10517799;28;20193;-7
2021/05/18 19:06:27;;;;;;;9.60;2.07;;;21.30;52.00;;;;;;10555402;28;20216;-12
2021/05/18 19:17:21;;;;;;;15.30;2.80;;;21.20;52.30;;;;;;10538946;28;20668;-12
2021/05/18 19:22:43;;;;;;;18.73;2.73;;;21.30;51.80;;;;;;10539543;28;20223;-12
2021/05/18 19:28:08;;;;;;;14.07;2.50;;;21.60;51.00;;;;;;10540565;28;20192;-13
2021/05/18 19:33:30;;;;;;;10.67;2.47;;;21.90;50.40;;;;;;10493132;28;20727;-13
2021/05/18 19:44:50;;;;;;;10.23;2.13;;;22.10;49.90;;;;;;10506663;28;20321;-11
2021/05/18 19:50:15;;;;;;;20.53;2.60;;;22.30;49.60;;;;;;10498313;28;20203;-12
2021/05/18 19:55:42;;;;;;;9.30;1.87;;;22.40;49.40;;;;;;10495682;28;20295;-13
2021/05/18 20:23:47;;;;;;;7.03;2.00;;;24.00;45.90;;;;;;10495962;28;20211;-12
2021/05/18 20:29:09;;;;;;;3.93;1.60;;;24.30;45.30;;;;;;10496353;28;20196;-13
2021/05/18 20:34:38;;;;;;;5.13;1.70;;;24.40;45.10;;;;;;10495753;28;20220;-12
2021/05/18 20:40:00;;;;;;;3.47;1.53;;;24.50;44.90;;;;;;10494662;28;20193;-12
2021/05/18 20:45:22;;;;;;;7.93;1.77;;;24.60;44.80;;;;;;10494992;28;20212;-12
2021/05/18 20:50:44;;;;;;;3.03;1.73;;;24.10;44.70;;;;;;10495227;28;20254;-11
2021/05/18 20:56:07;;;;;;;3.97;1.93;;;23.10;47.00;;;;;;10493997;28;20274;-12
2021/05/18 21:01:28;;;;;;;8.17;1.93;;;22.40;48.90;;;;;;10495609;28;20221;-13
2021/05/18 21:07:05;;;;;;;4.57;1.80;;;22.00;50.00;;;;;;10493765;28;20189;-13
2021/05/18 21:12:34;;;;;;;4.73;1.97;;;21.70;50.80;;;;;;10493678;28;20588;-13
2021/05/18 21:17:55;;;;;;;4.07;1.60;;;21.60;51.40;;;;;;10493750;28;20200;-12
2021/05/18 21:23:19;;;;;;;5.20;1.73;;;21.50;51.60;;;;;;10492934;28;20707;-11
2021/05/18 21:28:41;;;;;;;3.10;1.60;;;21.40;51.60;;;;;;10493761;28;20572;-13
2021/05/18 21:34:05;;;;;;;2.67;1.73;;;21.40;51.70;;;;;;10492677;28;20227;-12
2021/05/18 21:39:36;;;;;;;2.63;1.57;;;21.40;51.80;;;;;;10492409;28;20192;-12
2021/05/18 21:44:58;;;;;;;3.13;1.63;;;21.30;52.00;;;;;;10492801;28;20707;-13
2021/05/18 21:50:20;;;;;;;3.67;1.63;;;21.20;52.20;;;;;;10453776;28;20623;-11
2021/05/18 21:55:43;;;;;;;2.57;1.83;;;21.20;52.30;;;;;;10452097;28;20251;-12
2021/05/18 22:01:04;;;;;;;2.87;1.77;;;21.10;52.30;;;;;;10479848;28;20572;-10
2021/05/18 22:06:26;;;;;;;2.23;1.60;;;21.10;52.30;;;;;;10492762;28;20668;-12
2021/05/18 22:12:01;;;;;;;2.90;1.70;;;21.10;52.30;;;;;;10493040;28;20600;-13
2021/05/18 22:23:31;;;;;;;2.07;1.30;;;21.10;52.50;;;;;;10493072;28;20758;-12
2021/05/18 22:28:57;;;;;;;1.97;1.60;;;21.10;52.60;;;;;;10493293;28;20457;-12
2021/05/18 22:34:19;;;;;;;1.70;1.60;;;21.00;52.60;;;;;;10492618;28;20220;-13
2021/05/18 22:39:40;;;;;;;2.07;1.30;;;21.00;52.70;;;;;;10494844;28;20197;-12
2021/05/18 22:45:04;;;;;;;3.80;1.70;;;21.00;52.80;;;;;;10499436;28;20234;-12
2021/05/18 22:50:25;;;;;;;3.03;1.63;;;21.00;52.80;;;;;;10498493;28;20195;-13
2021/05/18 22:55:47;;;;;;;1.57;1.47;;;21.00;52.60;;;;;;10499126;28;20224;-11
2021/05/18 23:01:10;;;;;;;1.50;1.40;;;21.10;52.50;;;;;;10498662;28;20250;-12
2021/05/18 23:06:31;;;;;;;2.23;1.40;;;21.00;52.60;;;;;;10498944;28;20250;-13
2021/05/18 23:11:53;;;;;;;1.50;1.40;;;21.00;52.70;;;;;;10499029;28;20277;-12
2021/05/18 23:17:15;;;;;;;2.13;1.30;;;21.00;52.80;;;;;;10498537;28;20188;-11
2021/05/18 23:22:38;;;;;;;1.57;1.33;;;21.00;52.90;;;;;;10498532;28;20266;-12
2021/05/18 23:27:59;;;;;;;1.83;1.30;;;21.00;52.90;;;;;;10498438;28;20196;-12
2021/05/18 23:33:22;;;;;;;2.03;1.43;;;20.90;53.00;;;;;;10497998;28;20224;-12
2021/05/18 23:38:43;;;;;;;1.60;1.50;;;20.90;52.90;;;;;;10499085;28;20196;-12
2021/05/18 23:44:06;;;;;;;1.73;1.63;;;20.90;53.30;;;;;;10498875;28;20223;-13
2021/05/18 23:49:28;;;;;;;1.53;1.40;;;21.00;52.80;;;;;;10498207;28;20199;-13
2021/05/18 23:54:50;;;;;;;1.80;1.20;;;20.90;52.80;;;;;;10498491;28;20227;-13
